sensor_id;sensor_type;location;lat;lon;timestamp;P1;durP1;ratioP1;P2;durP2;ratioP2
29362;SDS011;16349;53.672;10.014;2024-02-16T00:02:12;4.87;;;4.10;;
29362;SDS011;16349;53.672;10.014;2024-02-16T00:04:40;5.40;;;4.90;;
29362;SDS011;16349;53.672;10.014;2024-02-16T00:07:07;5.83;;;4.87;;
29362;SDS011;16349;53.672;10.014;2024-02-16T00:09:35;7.43;;;4.67;;
29362;SDS011;16349;53.672;10.014;2024-02-16T00:12:02;5.20;;;4.70;;
29362;SDS011;16349;53.672;10.014;2024-02-16T00:14:29;7.87;;;4.43;;
29362;SDS011;16349;53.672;10.014;2024-02-16T00:16:56;4.90;;;4.40;;
29362;SDS011;16349;53.672;10.014;2024-02-16T00:19:23;10.37;;;5.20;;
29362;SDS011;16349;53.672;10.014;2024-02-16T00:21:50;4.73;;;4.23;;
29362;SDS011;16349;53.672;10.014;2024-02-16T00:24:17;4.97;;;4.50;;
29362;SDS011;16349;53.672;10.014;2024-02-16T00:26:45;6.17;;;4.27;;
29362;SDS011;16349;53.672;10.014;2024-02-16T00:29:13;5.67;;;4.03;;
29362;SDS011;16349;53.672;10.014;2024-02-16T00:31:39;4.53;;;3.93;;
29362;SDS011;16349;53.672;10.014;2024-02-16T00:34:06;6.87;;;4.60;;
29362;SDS011;16349;53.672;10.014;2024-02-16T00:36:33;5.50;;;4.23;;
29362;SDS011;16349;53.672;10.014;2024-02-16T00:39:00;6.20;;;3.73;;
29362;SDS011;16349;53.672;10.014;2024-02-16T00:41:29;4.80;;;4.40;;
29362;SDS011;16349;53.672;10.014;2024-02-16T00:43:57;5.30;;;3.90;;
29362;SDS011;16349;53.672;10.014;2024-02-16T00:46:24;4.77;;;4.20;;
29362;SDS011;16349;53.672;10.014;2024-02-16T00:48:51;7.83;;;4.77;;
29362;SDS011;16349;53.672;10.014;2024-02-16T00:51:19;6.97;;;4.03;;
29362;SDS011;16349;53.672;10.014;2024-02-16T00:53:46;7.07;;;4.60;;
29362;SDS011;16349;53.672;10.014;2024-02-16T00:56:12;6.67;;;4.80;;
29362;SDS011;16349;53.672;10.014;2024-02-16T00:58:40;5.87;;;4.10;;
29362;SDS011;16349;53.672;10.014;2024-02-16T01:01:09;5.73;;;3.77;;
29362;SDS011;16349;53.672;10.014;2024-02-16T01:03:37;3.97;;;3.67;;
29362;SDS011;16349;53.672;10.014;2024-02-16T01:06:05;5.73;;;3.97;;
29362;SDS011;16349;53.672;10.014;2024-02-16T01:08:34;7.30;;;3.90;;
29362;SDS011;16349;53.672;10.014;2024-02-16T01:11:00;3.67;;;3.20;;
29362;SDS011;16349;53.672;10.014;2024-02-16T01:13:27;5.90;;;3.87;;
29362;SDS011;16349;53.672;10.014;2024-02-16T01:15:54;9.13;;;3.73;;
29362;SDS011;16349;53.672;10.014;2024-02-16T01:18:22;7.00;;;3.70;;
29362;SDS011;16349;53.672;10.014;2024-02-16T01:20:49;6.67;;;3.70;;
29362;SDS011;16349;53.672;10.014;2024-02-16T01:23:16;5.13;;;3.37;;
29362;SDS011;16349;53.672;10.014;2024-02-16T01:25:43;4.50;;;3.43;;
29362;SDS011;16349;53.672;10.014;2024-02-16T01:28:10;5.07;;;3.50;;
29362;SDS011;16349;53.672;10.014;2024-02-16T01:30:37;4.27;;;3.20;;
29362;SDS011;16349;53.672;10.014;2024-02-16T01:33:04;4.73;;;4.07;;
29362;SDS011;16349;53.672;10.014;2024-02-16T01:35:33;9.23;;;3.30;;
29362;SDS011;16349;53.672;10.014;2024-02-16T01:38:00;4.37;;;2.87;;
29362;SDS011;16349;53.672;10.014;2024-02-16T01:40:28;7.67;;;3.03;;
29362;SDS011;16349;53.672;10.014;2024-02-16T01:42:55;8.20;;;3.80;;
29362;SDS011;16349;53.672;10.014;2024-02-16T01:45:22;4.47;;;3.47;;
29362;SDS011;16349;53.672;10.014;2024-02-16T01:47:50;5.67;;;3.80;;
29362;SDS011;16349;53.672;10.014;2024-02-16T01:50:18;3.47;;;3.17;;
29362;SDS011;16349;53.672;10.014;2024-02-16T01:52:47;4.73;;;3.33;;
29362;SDS011;16349;53.672;10.014;2024-02-16T01:55:15;4.40;;;3.20;;
29362;SDS011;16349;53.672;10.014;2024-02-16T01:57:42;3.50;;;3.10;;
29362;SDS011;16349;53.672;10.014;2024-02-16T02:00:10;3.83;;;3.43;;
29362;SDS011;16349;53.672;10.014;2024-02-16T02:02:40;4.10;;;3.20;;
29362;SDS011;16349;53.672;10.014;2024-02-16T02:05:07;3.10;;;2.80;;
29362;SDS011;16349;53.672;10.014;2024-02-16T02:07:34;4.17;;;3.27;;
29362;SDS011;16349;53.672;10.014;2024-02-16T02:10:03;2.87;;;2.60;;
29362;SDS011;16349;53.672;10.014;2024-02-16T02:12:30;7.77;;;3.20;;
29362;SDS011;16349;53.672;10.014;2024-02-16T02:14:57;5.57;;;3.10;;
29362;SDS011;16349;53.672;10.014;2024-02-16T02:17:24;3.70;;;2.90;;
29362;SDS011;16349;53.672;10.014;2024-02-16T02:19:50;5.47;;;3.27;;
29362;SDS011;16349;53.672;10.014;2024-02-16T02:22:19;6.10;;;2.77;;
29362;SDS011;16349;53.672;10.014;2024-02-16T02:24:46;4.33;;;2.90;;
29362;SDS011;16349;53.672;10.014;2024-02-16T02:27:14;5.87;;;2.90;;
29362;SDS011;16349;53.672;10.014;2024-02-16T02:29:41;4.77;;;3.17;;
29362;SDS011;16349;53.672;10.014;2024-02-16T02:32:09;5.00;;;3.20;;
29362;SDS011;16349;53.672;10.014;2024-02-16T02:34:36;6.60;;;3.70;;
29362;SDS011;16349;53.672;10.014;2024-02-16T02:37:03;5.13;;;3.20;;
29362;SDS011;16349;53.672;10.014;2024-02-16T02:39:31;3.60;;;2.97;;
29362;SDS011;16349;53.672;10.014;2024-02-16T02:41:58;6.60;;;3.20;;
29362;SDS011;16349;53.672;10.014;2024-02-16T02:44:25;4.77;;;3.70;;
29362;SDS011;16349;53.672;10.014;2024-02-16T02:46:52;6.53;;;3.40;;
29362;SDS011;16349;53.672;10.014;2024-02-16T02:49:19;7.83;;;3.50;;
29362;SDS011;16349;53.672;10.014;2024-02-16T02:51:46;3.83;;;3.23;;
29362;SDS011;16349;53.672;10.014;2024-02-16T02:54:13;7.20;;;3.10;;
29362;SDS011;16349;53.672;10.014;2024-02-16T02:56:41;4.83;;;3.10;;
29362;SDS011;16349;53.672;10.014;2024-02-16T02:59:07;7.63;;;3.33;;
29362;SDS011;16349;53.672;10.014;2024-02-16T03:01:35;8.03;;;3.53;;
29362;SDS011;16349;53.672;10.014;2024-02-16T03:04:03;6.30;;;3.23;;
29362;SDS011;16349;53.672;10.014;2024-02-16T03:06:30;4.17;;;3.07;;
29362;SDS011;16349;53.672;10.014;2024-02-16T03:08:56;3.53;;;3.03;;
29362;SDS011;16349;53.672;10.014;2024-02-16T03:11:23;5.00;;;3.10;;
29362;SDS011;16349;53.672;10.014;2024-02-16T03:13:52;4.30;;;3.10;;
29362;SDS011;16349;53.672;10.014;2024-02-16T03:16:18;4.03;;;3.10;;
29362;SDS011;16349;53.672;10.014;2024-02-16T03:18:45;4.43;;;3.07;;
29362;SDS011;16349;53.672;10.014;2024-02-16T03:21:13;6.17;;;3.53;;
29362;SDS011;16349;53.672;10.014;2024-02-16T03:23:41;3.03;;;2.73;;
29362;SDS011;16349;53.672;10.014;2024-02-16T03:26:13;5.67;;;2.80;;
29362;SDS011;16349;53.672;10.014;2024-02-16T03:28:40;3.00;;;2.70;;
29362;SDS011;16349;53.672;10.014;2024-02-16T03:31:15;2.97;;;2.73;;
29362;SDS011;16349;53.672;10.014;2024-02-16T03:33:43;5.30;;;2.93;;
29362;SDS011;16349;53.672;10.014;2024-02-16T03:36:10;5.33;;;3.33;;
29362;SDS011;16349;53.672;10.014;2024-02-16T03:38:40;3.33;;;3.00;;
29362;SDS011;16349;53.672;10.014;2024-02-16T03:41:07;6.07;;;3.30;;
29362;SDS011;16349;53.672;10.014;2024-02-16T03:43:37;4.87;;;3.13;;
29362;SDS011;16349;53.672;10.014;2024-02-16T03:46:04;8.13;;;3.27;;
29362;SDS011;16349;53.672;10.014;2024-02-16T03:48:32;3.67;;;3.03;;
29362;SDS011;16349;53.672;10.014;2024-02-16T03:50:59;4.07;;;2.60;;
29362;SDS011;16349;53.672;10.014;2024-02-16T03:53:28;6.70;;;2.90;;
29362;SDS011;16349;53.672;10.014;2024-02-16T03:55:55;5.43;;;3.13;;
29362;SDS011;16349;53.672;10.014;2024-02-16T03:58:22;4.43;;;2.80;;
29362;SDS011;16349;53.672;10.014;2024-02-16T04:00:48;4.50;;;3.03;;
29362;SDS011;16349;53.672;10.014;2024-02-16T04:03:17;6.53;;;3.17;;
29362;SDS011;16349;53.672;10.014;2024-02-16T04:05:46;4.17;;;3.03;;
29362;SDS011;16349;53.672;10.014;2024-02-16T04:08:13;4.23;;;3.20;;
29362;SDS011;16349;53.672;10.014;2024-02-16T04:10:40;3.43;;;2.60;;
29362;SDS011;16349;53.672;10.014;2024-02-16T04:13:07;3.10;;;2.90;;
29362;SDS011;16349;53.672;10.014;2024-02-16T04:15:33;5.83;;;3.13;;
29362;SDS011;16349;53.672;10.014;2024-02-16T04:18:00;6.57;;;3.27;;
29362;SDS011;16349;53.672;10.014;2024-02-16T04:20:27;5.27;;;2.97;;
29362;SDS011;16349;53.672;10.014;2024-02-16T04:22:55;4.10;;;2.90;;
29362;SDS011;16349;53.672;10.014;2024-02-16T04:25:22;6.00;;;3.10;;
29362;SDS011;16349;53.672;10.014;2024-02-16T04:27:49;6.37;;;3.10;;
29362;SDS011;16349;53.672;10.014;2024-02-16T04:30:16;5.03;;;3.77;;
29362;SDS011;16349;53.672;10.014;2024-02-16T04:32:43;6.90;;;3.20;;
29362;SDS011;16349;53.672;10.014;2024-02-16T04:35:09;3.33;;;2.73;;
29362;SDS011;16349;53.672;10.014;2024-02-16T04:37:37;3.47;;;2.83;;
29362;SDS011;16349;53.672;10.014;2024-02-16T04:40:06;10.47;;;3.03;;
29362;SDS011;16349;53.672;10.014;2024-02-16T04:42:37;3.87;;;2.97;;
29362;SDS011;16349;53.672;10.014;2024-02-16T04:45:05;5.40;;;3.30;;
29362;SDS011;16349;53.672;10.014;2024-02-16T04:47:33;8.60;;;3.20;;
29362;SDS011;16349;53.672;10.014;2024-02-16T04:50:00;7.87;;;3.40;;
29362;SDS011;16349;53.672;10.014;2024-02-16T04:52:28;3.70;;;3.03;;
29362;SDS011;16349;53.672;10.014;2024-02-16T04:54:54;5.90;;;2.87;;
29362;SDS011;16349;53.672;10.014;2024-02-16T04:57:23;4.83;;;2.93;;
29362;SDS011;16349;53.672;10.014;2024-02-16T04:59:49;5.07;;;3.60;;
29362;SDS011;16349;53.672;10.014;2024-02-16T05:02:16;9.43;;;3.20;;
29362;SDS011;16349;53.672;10.014;2024-02-16T05:04:43;3.80;;;2.80;;
29362;SDS011;16349;53.672;10.014;2024-02-16T05:07:10;4.50;;;2.77;;
29362;SDS011;16349;53.672;10.014;2024-02-16T05:09:37;6.30;;;3.40;;
29362;SDS011;16349;53.672;10.014;2024-02-16T05:12:05;3.97;;;2.80;;
29362;SDS011;16349;53.672;10.014;2024-02-16T05:14:35;5.97;;;3.10;;
29362;SDS011;16349;53.672;10.014;2024-02-16T05:17:02;2.90;;;2.50;;
29362;SDS011;16349;53.672;10.014;2024-02-16T05:19:31;3.23;;;2.80;;
29362;SDS011;16349;53.672;10.014;2024-02-16T05:21:59;4.97;;;2.23;;
29362;SDS011;16349;53.672;10.014;2024-02-16T05:24:26;6.07;;;2.80;;
29362;SDS011;16349;53.672;10.014;2024-02-16T05:26:53;8.53;;;2.67;;
29362;SDS011;16349;53.672;10.014;2024-02-16T05:29:20;4.73;;;2.47;;
29362;SDS011;16349;53.672;10.014;2024-02-16T05:31:51;4.87;;;3.50;;
29362;SDS011;16349;53.672;10.014;2024-02-16T05:34:18;4.70;;;2.43;;
29362;SDS011;16349;53.672;10.014;2024-02-16T05:36:45;4.60;;;2.23;;
29362;SDS011;16349;53.672;10.014;2024-02-16T05:39:12;4.27;;;2.40;;
29362;SDS011;16349;53.672;10.014;2024-02-16T05:41:51;3.47;;;2.50;;
29362;SDS011;16349;53.672;10.014;2024-02-16T05:44:18;3.00;;;2.60;;
29362;SDS011;16349;53.672;10.014;2024-02-16T05:46:45;4.77;;;2.47;;
29362;SDS011;16349;53.672;10.014;2024-02-16T05:49:13;2.77;;;2.20;;
29362;SDS011;16349;53.672;10.014;2024-02-16T05:51:41;3.80;;;2.57;;
29362;SDS011;16349;53.672;10.014;2024-02-16T05:54:24;4.83;;;2.73;;
29362;SDS011;16349;53.672;10.014;2024-02-16T05:56:53;3.50;;;2.30;;
29362;SDS011;16349;53.672;10.014;2024-02-16T05:59:19;6.60;;;2.50;;
29362;SDS011;16349;53.672;10.014;2024-02-16T06:01:47;4.13;;;2.53;;
29362;SDS011;16349;53.672;10.014;2024-02-16T06:04:15;4.90;;;2.00;;
29362;SDS011;16349;53.672;10.014;2024-02-16T06:06:42;3.90;;;2.47;;
29362;SDS011;16349;53.672;10.014;2024-02-16T06:09:10;5.27;;;2.67;;
29362;SDS011;16349;53.672;10.014;2024-02-16T06:11:37;3.67;;;2.60;;
29362;SDS011;16349;53.672;10.014;2024-02-16T06:14:04;4.87;;;2.70;;
29362;SDS011;16349;53.672;10.014;2024-02-16T06:16:31;5.97;;;2.47;;
29362;SDS011;16349;53.672;10.014;2024-02-16T06:18:58;3.40;;;2.90;;
29362;SDS011;16349;53.672;10.014;2024-02-16T06:21:26;7.00;;;2.50;;
29362;SDS011;16349;53.672;10.014;2024-02-16T06:23:53;3.40;;;2.60;;
29362;SDS011;16349;53.672;10.014;2024-02-16T06:26:20;2.47;;;2.10;;
29362;SDS011;16349;53.672;10.014;2024-02-16T06:28:47;6.37;;;2.30;;
29362;SDS011;16349;53.672;10.014;2024-02-16T06:31:14;5.93;;;2.13;;
29362;SDS011;16349;53.672;10.014;2024-02-16T06:33:40;5.27;;;2.43;;
29362;SDS011;16349;53.672;10.014;2024-02-16T06:36:07;2.77;;;2.30;;
29362;SDS011;16349;53.672;10.014;2024-02-16T06:38:36;3.17;;;1.97;;
29362;SDS011;16349;53.672;10.014;2024-02-16T06:41:03;3.93;;;2.47;;
29362;SDS011;16349;53.672;10.014;2024-02-16T06:43:30;2.43;;;2.07;;
29362;SDS011;16349;53.672;10.014;2024-02-16T06:45:57;4.10;;;2.10;;
29362;SDS011;16349;53.672;10.014;2024-02-16T06:48:24;4.33;;;2.57;;
29362;SDS011;16349;53.672;10.014;2024-02-16T06:50:51;4.60;;;2.20;;
29362;SDS011;16349;53.672;10.014;2024-02-16T06:53:19;3.73;;;2.13;;
29362;SDS011;16349;53.672;10.014;2024-02-16T06:55:47;5.67;;;2.17;;
29362;SDS011;16349;53.672;10.014;2024-02-16T06:58:14;3.87;;;2.20;;
29362;SDS011;16349;53.672;10.014;2024-02-16T07:00:41;6.57;;;2.27;;
29362;SDS011;16349;53.672;10.014;2024-02-16T07:03:08;3.03;;;2.00;;
29362;SDS011;16349;53.672;10.014;2024-02-16T07:05:35;3.97;;;2.60;;
29362;SDS011;16349;53.672;10.014;2024-02-16T07:08:02;4.27;;;2.47;;
29362;SDS011;16349;53.672;10.014;2024-02-16T07:10:31;4.33;;;2.40;;
29362;SDS011;16349;53.672;10.014;2024-02-16T07:12:59;3.10;;;2.80;;
29362;SDS011;16349;53.672;10.014;2024-02-16T07:15:26;5.53;;;2.50;;
29362;SDS011;16349;53.672;10.014;2024-02-16T07:17:53;6.40;;;2.50;;
29362;SDS011;16349;53.672;10.014;2024-02-16T07:20:20;6.50;;;2.60;;
29362;SDS011;16349;53.672;10.014;2024-02-16T07:22:47;4.43;;;2.37;;
29362;SDS011;16349;53.672;10.014;2024-02-16T07:25:17;7.13;;;2.13;;
29362;SDS011;16349;53.672;10.014;2024-02-16T07:27:44;2.90;;;2.03;;
29362;SDS011;16349;53.672;10.014;2024-02-16T07:30:13;5.57;;;2.40;;
29362;SDS011;16349;53.672;10.014;2024-02-16T07:32:40;4.83;;;2.23;;
29362;SDS011;16349;53.672;10.014;2024-02-16T07:35:06;4.47;;;2.47;;
29362;SDS011;16349;53.672;10.014;2024-02-16T07:37:35;5.20;;;2.43;;
29362;SDS011;16349;53.672;10.014;2024-02-16T07:40:02;6.07;;;2.60;;
29362;SDS011;16349;53.672;10.014;2024-02-16T07:42:31;5.57;;;2.63;;
29362;SDS011;16349;53.672;10.014;2024-02-16T07:45:04;3.97;;;2.20;;
29362;SDS011;16349;53.672;10.014;2024-02-16T07:47:33;3.70;;;2.30;;
29362;SDS011;16349;53.672;10.014;2024-02-16T07:49:59;6.27;;;2.40;;
29362;SDS011;16349;53.672;10.014;2024-02-16T07:52:26;2.60;;;2.40;;
29362;SDS011;16349;53.672;10.014;2024-02-16T07:54:53;4.03;;;1.90;;
29362;SDS011;16349;53.672;10.014;2024-02-16T07:57:20;3.93;;;2.00;;
29362;SDS011;16349;53.672;10.014;2024-02-16T07:59:46;5.17;;;2.00;;
29362;SDS011;16349;53.672;10.014;2024-02-16T08:02:13;3.27;;;2.00;;
29362;SDS011;16349;53.672;10.014;2024-02-16T08:04:42;5.63;;;2.57;;
29362;SDS011;16349;53.672;10.014;2024-02-16T08:07:09;3.87;;;2.10;;
29362;SDS011;16349;53.672;10.014;2024-02-16T08:09:36;2.20;;;2.10;;
29362;SDS011;16349;53.672;10.014;2024-02-16T08:12:03;3.27;;;1.87;;
29362;SDS011;16349;53.672;10.014;2024-02-16T08:14:32;2.53;;;2.30;;
29362;SDS011;16349;53.672;10.014;2024-02-16T08:16:59;2.73;;;2.10;;
29362;SDS011;16349;53.672;10.014;2024-02-16T08:19:31;4.37;;;2.50;;
29362;SDS011;16349;53.672;10.014;2024-02-16T08:22:00;5.67;;;2.60;;
29362;SDS011;16349;53.672;10.014;2024-02-16T08:24:28;5.20;;;1.57;;
29362;SDS011;16349;53.672;10.014;2024-02-16T08:26:55;2.43;;;2.07;;
29362;SDS011;16349;53.672;10.014;2024-02-16T08:29:22;3.93;;;1.97;;
29362;SDS011;16349;53.672;10.014;2024-02-16T08:31:50;5.37;;;1.93;;
29362;SDS011;16349;53.672;10.014;2024-02-16T08:34:17;4.90;;;1.90;;
29362;SDS011;16349;53.672;10.014;2024-02-16T08:36:44;3.20;;;1.60;;
29362;SDS011;16349;53.672;10.014;2024-02-16T08:39:12;2.73;;;1.60;;
29362;SDS011;16349;53.672;10.014;2024-02-16T08:41:39;2.90;;;1.80;;
29362;SDS011;16349;53.672;10.014;2024-02-16T08:44:07;2.90;;;1.60;;
29362;SDS011;16349;53.672;10.014;2024-02-16T08:46:35;3.53;;;1.67;;
29362;SDS011;16349;53.672;10.014;2024-02-16T08:49:02;2.10;;;1.80;;
29362;SDS011;16349;53.672;10.014;2024-02-16T08:51:31;2.60;;;1.83;;
29362;SDS011;16349;53.672;10.014;2024-02-16T08:53:58;2.30;;;1.50;;
29362;SDS011;16349;53.672;10.014;2024-02-16T08:56:26;2.13;;;1.93;;
29362;SDS011;16349;53.672;10.014;2024-02-16T08:58:53;3.93;;;2.00;;
29362;SDS011;16349;53.672;10.014;2024-02-16T09:01:29;3.53;;;1.50;;
29362;SDS011;16349;53.672;10.014;2024-02-16T09:03:56;4.23;;;1.50;;
29362;SDS011;16349;53.672;10.014;2024-02-16T09:06:23;3.50;;;1.37;;
29362;SDS011;16349;53.672;10.014;2024-02-16T09:08:50;2.97;;;1.70;;
29362;SDS011;16349;53.672;10.014;2024-02-16T09:11:17;2.27;;;1.80;;
29362;SDS011;16349;53.672;10.014;2024-02-16T09:13:46;5.07;;;2.00;;
29362;SDS011;16349;53.672;10.014;2024-02-16T09:16:13;2.47;;;1.67;;
29362;SDS011;16349;53.672;10.014;2024-02-16T09:18:40;3.47;;;1.43;;
29362;SDS011;16349;53.672;10.014;2024-02-16T09:21:08;1.57;;;1.43;;
29362;SDS011;16349;53.672;10.014;2024-02-16T09:23:35;4.37;;;1.97;;
29362;SDS011;16349;53.672;10.014;2024-02-16T09:26:03;1.67;;;1.57;;
29362;SDS011;16349;53.672;10.014;2024-02-16T09:28:30;3.63;;;2.10;;
29362;SDS011;16349;53.672;10.014;2024-02-16T09:30:59;2.47;;;1.60;;
29362;SDS011;16349;53.672;10.014;2024-02-16T09:33:25;2.83;;;1.40;;
29362;SDS011;16349;53.672;10.014;2024-02-16T09:35:53;3.77;;;1.80;;
29362;SDS011;16349;53.672;10.014;2024-02-16T09:38:20;4.03;;;1.60;;
29362;SDS011;16349;53.672;10.014;2024-02-16T09:40:47;3.27;;;1.80;;
29362;SDS011;16349;53.672;10.014;2024-02-16T09:43:23;1.80;;;1.67;;
29362;SDS011;16349;53.672;10.014;2024-02-16T09:45:52;4.37;;;1.80;;
29362;SDS011;16349;53.672;10.014;2024-02-16T09:48:21;2.13;;;1.60;;
29362;SDS011;16349;53.672;10.014;2024-02-16T09:50:49;3.73;;;1.50;;
29362;SDS011;16349;53.672;10.014;2024-02-16T09:53:17;3.67;;;1.80;;
29362;SDS011;16349;53.672;10.014;2024-02-16T09:55:48;3.60;;;1.50;;
29362;SDS011;16349;53.672;10.014;2024-02-16T09:58:16;4.37;;;1.80;;
29362;SDS011;16349;53.672;10.014;2024-02-16T10:00:47;3.73;;;1.70;;
29362;SDS011;16349;53.672;10.014;2024-02-16T10:03:23;4.13;;;1.60;;
29362;SDS011;16349;53.672;10.014;2024-02-16T10:05:50;3.73;;;1.80;;
29362;SDS011;16349;53.672;10.014;2024-02-16T10:08:17;3.33;;;2.40;;
29362;SDS011;16349;53.672;10.014;2024-02-16T10:10:44;8.07;;;2.23;;
29362;SDS011;16349;53.672;10.014;2024-02-16T10:13:12;2.47;;;2.00;;
29362;SDS011;16349;53.672;10.014;2024-02-16T10:15:39;3.87;;;1.93;;
29362;SDS011;16349;53.672;10.014;2024-02-16T10:18:05;5.00;;;1.80;;
29362;SDS011;16349;53.672;10.014;2024-02-16T10:20:35;4.07;;;1.80;;
29362;SDS011;16349;53.672;10.014;2024-02-16T10:23:04;3.93;;;2.30;;
29362;SDS011;16349;53.672;10.014;2024-02-16T10:25:32;4.90;;;2.07;;
29362;SDS011;16349;53.672;10.014;2024-02-16T10:27:58;3.43;;;1.53;;
29362;SDS011;16349;53.672;10.014;2024-02-16T10:30:30;3.40;;;1.73;;
29362;SDS011;16349;53.672;10.014;2024-02-16T10:33:01;2.90;;;1.70;;
29362;SDS011;16349;53.672;10.014;2024-02-16T10:35:29;3.07;;;1.73;;
29362;SDS011;16349;53.672;10.014;2024-02-16T10:38:00;5.33;;;2.03;;
29362;SDS011;16349;53.672;10.014;2024-02-16T10:40:30;2.53;;;1.90;;
29362;SDS011;16349;53.672;10.014;2024-02-16T10:43:00;3.43;;;1.80;;
29362;SDS011;16349;53.672;10.014;2024-02-16T10:45:33;4.63;;;1.93;;
29362;SDS011;16349;53.672;10.014;2024-02-16T10:48:01;3.00;;;1.60;;
29362;SDS011;16349;53.672;10.014;2024-02-16T10:50:28;6.33;;;1.90;;
29362;SDS011;16349;53.672;10.014;2024-02-16T10:52:55;2.20;;;2.00;;
29362;SDS011;16349;53.672;10.014;2024-02-16T10:55:27;2.73;;;1.97;;
29362;SDS011;16349;53.672;10.014;2024-02-16T10:57:55;4.30;;;1.63;;
29362;SDS011;16349;53.672;10.014;2024-02-16T11:00:24;5.00;;;2.13;;
29362;SDS011;16349;53.672;10.014;2024-02-16T11:02:52;2.40;;;2.20;;
29362;SDS011;16349;53.672;10.014;2024-02-16T11:05:31;4.70;;;1.80;;
29362;SDS011;16349;53.672;10.014;2024-02-16T11:08:03;3.83;;;2.27;;
29362;SDS011;16349;53.672;10.014;2024-02-16T11:10:32;2.07;;;1.80;;
29362;SDS011;16349;53.672;10.014;2024-02-16T11:13:02;2.47;;;2.23;;
29362;SDS011;16349;53.672;10.014;2024-02-16T11:15:30;2.47;;;1.93;;
29362;SDS011;16349;53.672;10.014;2024-02-16T11:18:00;3.70;;;1.70;;
29362;SDS011;16349;53.672;10.014;2024-02-16T11:20:27;2.77;;;1.80;;
29362;SDS011;16349;53.672;10.014;2024-02-16T11:23:04;2.23;;;1.53;;
29362;SDS011;16349;53.672;10.014;2024-02-16T11:25:37;2.90;;;1.47;;
29362;SDS011;16349;53.672;10.014;2024-02-16T11:28:04;1.37;;;1.27;;
29362;SDS011;16349;53.672;10.014;2024-02-16T11:30:34;1.87;;;1.77;;
29362;SDS011;16349;53.672;10.014;2024-02-16T11:33:01;2.53;;;1.50;;
29362;SDS011;16349;53.672;10.014;2024-02-16T11:35:29;2.40;;;1.27;;
29362;SDS011;16349;53.672;10.014;2024-02-16T11:37:56;2.27;;;1.50;;
29362;SDS011;16349;53.672;10.014;2024-02-16T11:40:23;2.50;;;1.30;;
29362;SDS011;16349;53.672;10.014;2024-02-16T11:42:58;2.30;;;1.27;;
29362;SDS011;16349;53.672;10.014;2024-02-16T11:45:25;3.93;;;1.30;;
29362;SDS011;16349;53.672;10.014;2024-02-16T11:48:02;1.93;;;1.50;;
29362;SDS011;16349;53.672;10.014;2024-02-16T11:50:30;3.03;;;1.70;;
29362;SDS011;16349;53.672;10.014;2024-02-16T11:52:57;1.87;;;1.60;;
29362;SDS011;16349;53.672;10.014;2024-02-16T11:55:24;2.30;;;1.63;;
29362;SDS011;16349;53.672;10.014;2024-02-16T11:57:51;4.27;;;1.63;;
29362;SDS011;16349;53.672;10.014;2024-02-16T12:00:21;1.77;;;1.43;;
29362;SDS011;16349;53.672;10.014;2024-02-16T12:02:58;4.00;;;1.43;;
29362;SDS011;16349;53.672;10.014;2024-02-16T12:05:25;2.40;;;1.50;;
29362;SDS011;16349;53.672;10.014;2024-02-16T12:07:52;5.23;;;1.50;;
29362;SDS011;16349;53.672;10.014;2024-02-16T12:10:19;2.03;;;1.83;;
29362;SDS011;16349;53.672;10.014;2024-02-16T12:12:47;4.00;;;2.13;;
29362;SDS011;16349;53.672;10.014;2024-02-16T12:15:14;2.97;;;1.70;;
29362;SDS011;16349;53.672;10.014;2024-02-16T12:17:44;3.97;;;2.00;;
29362;SDS011;16349;53.672;10.014;2024-02-16T12:20:11;4.23;;;2.07;;
29362;SDS011;16349;53.672;10.014;2024-02-16T12:22:39;3.30;;;1.63;;
29362;SDS011;16349;53.672;10.014;2024-02-16T12:25:06;2.57;;;1.50;;
29362;SDS011;16349;53.672;10.014;2024-02-16T12:27:33;1.83;;;1.70;;
29362;SDS011;16349;53.672;10.014;2024-02-16T12:30:00;4.07;;;2.20;;
29362;SDS011;16349;53.672;10.014;2024-02-16T12:32:27;2.90;;;2.20;;
29362;SDS011;16349;53.672;10.014;2024-02-16T12:34:55;5.27;;;2.40;;
29362;SDS011;16349;53.672;10.014;2024-02-16T12:37:22;3.20;;;2.23;;
29362;SDS011;16349;53.672;10.014;2024-02-16T12:39:49;2.53;;;2.10;;
29362;SDS011;16349;53.672;10.014;2024-02-16T12:42:16;4.90;;;2.20;;
29362;SDS011;16349;53.672;10.014;2024-02-16T12:44:43;2.67;;;2.10;;
29362;SDS011;16349;53.672;10.014;2024-02-16T12:47:10;4.07;;;2.70;;
29362;SDS011;16349;53.672;10.014;2024-02-16T12:49:37;3.77;;;2.43;;
29362;SDS011;16349;53.672;10.014;2024-02-16T12:52:05;4.27;;;2.50;;
29362;SDS011;16349;53.672;10.014;2024-02-16T12:54:33;3.70;;;2.10;;
29362;SDS011;16349;53.672;10.014;2024-02-16T12:56:59;5.23;;;2.13;;
29362;SDS011;16349;53.672;10.014;2024-02-16T12:59:26;3.93;;;2.50;;
29362;SDS011;16349;53.672;10.014;2024-02-16T13:01:53;4.57;;;2.10;;
29362;SDS011;16349;53.672;10.014;2024-02-16T13:04:20;4.60;;;2.57;;
29362;SDS011;16349;53.672;10.014;2024-02-16T13:06:48;4.37;;;2.63;;
29362;SDS011;16349;53.672;10.014;2024-02-16T13:09:18;3.17;;;2.70;;
29362;SDS011;16349;53.672;10.014;2024-02-16T13:11:45;4.77;;;2.90;;
29362;SDS011;16349;53.672;10.014;2024-02-16T13:14:19;2.97;;;2.47;;
29362;SDS011;16349;53.672;10.014;2024-02-16T13:16:46;7.20;;;3.30;;
29362;SDS011;16349;53.672;10.014;2024-02-16T13:19:13;3.63;;;3.10;;
29362;SDS011;16349;53.672;10.014;2024-02-16T13:21:41;5.77;;;2.73;;
29362;SDS011;16349;53.672;10.014;2024-02-16T13:24:09;3.67;;;2.60;;
29362;SDS011;16349;53.672;10.014;2024-02-16T13:26:37;3.80;;;2.23;;
29362;SDS011;16349;53.672;10.014;2024-02-16T13:29:04;3.53;;;2.67;;
29362;SDS011;16349;53.672;10.014;2024-02-16T13:31:31;2.63;;;2.40;;
29362;SDS011;16349;53.672;10.014;2024-02-16T13:33:58;2.70;;;2.47;;
29362;SDS011;16349;53.672;10.014;2024-02-16T13:36:26;4.00;;;2.70;;
29362;SDS011;16349;53.672;10.014;2024-02-16T13:38:52;9.73;;;2.57;;
29362;SDS011;16349;53.672;10.014;2024-02-16T13:41:19;3.93;;;2.57;;
29362;SDS011;16349;53.672;10.014;2024-02-16T13:43:47;3.27;;;2.97;;
29362;SDS011;16349;53.672;10.014;2024-02-16T13:46:14;5.00;;;3.30;;
29362;SDS011;16349;53.672;10.014;2024-02-16T13:48:42;5.37;;;2.97;;
29362;SDS011;16349;53.672;10.014;2024-02-16T13:51:09;6.50;;;3.40;;
29362;SDS011;16349;53.672;10.014;2024-02-16T13:53:36;3.47;;;2.60;;
29362;SDS011;16349;53.672;10.014;2024-02-16T13:56:03;5.20;;;3.27;;
29362;SDS011;16349;53.672;10.014;2024-02-16T13:58:31;7.07;;;3.50;;
29362;SDS011;16349;53.672;10.014;2024-02-16T14:01:01;3.40;;;3.10;;
29362;SDS011;16349;53.672;10.014;2024-02-16T14:03:28;4.07;;;3.20;;
29362;SDS011;16349;53.672;10.014;2024-02-16T14:05:56;4.73;;;3.30;;
29362;SDS011;16349;53.672;10.014;2024-02-16T14:08:24;3.53;;;3.17;;
29362;SDS011;16349;53.672;10.014;2024-02-16T14:10:51;3.47;;;3.07;;
29362;SDS011;16349;53.672;10.014;2024-02-16T14:13:18;3.93;;;3.47;;
29362;SDS011;16349;53.672;10.014;2024-02-16T14:15:46;4.33;;;3.27;;
29362;SDS011;16349;53.672;10.014;2024-02-16T14:18:14;4.33;;;3.13;;
29362;SDS011;16349;53.672;10.014;2024-02-16T14:20:41;5.00;;;3.40;;
29362;SDS011;16349;53.672;10.014;2024-02-16T14:23:08;5.17;;;3.60;;
29362;SDS011;16349;53.672;10.014;2024-02-16T14:25:35;5.20;;;4.07;;
29362;SDS011;16349;53.672;10.014;2024-02-16T14:28:05;6.03;;;3.80;;
29362;SDS011;16349;53.672;10.014;2024-02-16T14:30:32;4.57;;;4.17;;
29362;SDS011;16349;53.672;10.014;2024-02-16T14:32:59;5.57;;;4.17;;
29362;SDS011;16349;53.672;10.014;2024-02-16T14:35:29;4.13;;;3.73;;
29362;SDS011;16349;53.672;10.014;2024-02-16T14:37:56;6.37;;;3.90;;